Time;durP1;ratioP1;P1;durP2;ratioP2;P2;SDS_P1;SDS_P2;PMS_P1;PMS_P2;Temp;Humidity;BMP_temperature;BMP_pressure;BME280_temperature;BME280_humidity;BME280_pressure;Samples;Min_cycle;Max_cycle;Signal;HPM_P1;HPM_P2
2021/12/20 00:02:02;;;;;;;4.38;2.97;;;7.20;50.90;;;;;;5111167;27;34240;-75
2021/12/20 00:04:28;;;;;;;4.22;2.90;;;7.20;51.00;;;;;;5111003;27;34333;-74
2021/12/20 00:06:54;;;;;;;3.58;2.25;;;7.20;51.00;;;;;;5111019;27;34543;-75
2021/12/20 00:09:20;;;;;;;3.30;2.55;;;7.20;51.00;;;;;;5093802;27;35655;-75
2021/12/20 00:11:46;;;;;;;3.50;2.63;;;7.20;51.00;;;;;;5110472;27;34314;-76
2021/12/20 00:14:12;;;;;;;3.97;2.83;;;7.20;51.10;;;;;;5111411;27;34250;-75
2021/12/20 00:16:38;;;;;;;4.13;2.70;;;7.20;51.10;;;;;;5111273;27;34351;-75
2021/12/20 00:19:09;;;;;;;3.38;2.25;;;7.20;51.00;;;;;;5109614;27;35887;-75
2021/12/20 00:21:36;;;;;;;3.30;2.42;;;7.20;51.00;;;;;;5111038;27;34153;-75
2021/12/20 00:24:03;;;;;;;3.55;2.67;;;7.20;51.20;;;;;;5094753;27;34379;-75
2021/12/20 00:26:30;;;;;;;4.45;2.67;;;7.20;51.30;;;;;;5111037;27;34321;-75
2021/12/20 00:28:56;;;;;;;2.90;2.40;;;7.10;51.20;;;;;;5129165;27;34551;-75
2021/12/20 00:31:22;;;;;;;4.25;2.55;;;7.20;51.30;;;;;;5129724;27;34318;-75
2021/12/20 00:33:48;;;;;;;3.13;2.33;;;7.20;51.30;;;;;;5110646;27;34345;-75
2021/12/20 00:36:21;;;;;;;3.75;2.88;;;7.20;51.40;;;;;;5110936;27;34093;-75
2021/12/20 00:41:30;;;;;;;4.18;2.42;;;7.10;51.30;;;;;;5129180;27;34081;-75
2021/12/20 00:43:56;;;;;;;4.25;3.05;;;7.20;51.40;;;;;;5111489;27;34240;-75
2021/12/20 00:46:22;;;;;;;4.55;2.55;;;7.10;51.40;;;;;;5093293;27;34531;-75
2021/12/20 00:48:48;;;;;;;4.95;2.78;;;7.10;51.50;;;;;;5110022;27;35677;-75
2021/12/20 00:51:14;;;;;;;3.80;2.50;;;7.10;51.40;;;;;;5110375;27;34169;-75
2021/12/20 00:53:40;;;;;;;4.90;2.95;;;7.10;51.50;;;;;;5110647;27;34140;-75
2021/12/20 00:56:06;;;;;;;4.22;2.75;;;7.10;51.50;;;;;;5093535;27;34186;-75
2021/12/20 00:58:32;;;;;;;4.07;2.83;;;7.10;51.50;;;;;;5109752;27;35734;-75
2021/12/20 01:00:58;;;;;;;3.85;2.03;;;7.10;51.40;;;;;;5093665;27;34120;-75
2021/12/20 01:03:25;;;;;;;4.20;2.30;;;7.10;51.50;;;;;;5093362;27;34253;-75
2021/12/20 01:05:51;;;;;;;4.85;2.90;;;7.10;51.50;;;;;;5110389;27;34302;-76
2021/12/20 01:08:19;;;;;;;3.58;2.67;;;7.00;51.40;;;;;;5110618;27;36488;-75
2021/12/20 01:10:51;;;;;;;4.43;2.53;;;7.00;51.50;;;;;;5110356;27;34325;-75
2021/12/20 01:13:20;;;;;;;4.10;2.47;;;7.00;51.60;;;;;;5093870;27;34339;-75
2021/12/20 01:15:50;;;;;;;3.13;2.22;;;7.00;51.70;;;;;;5094276;27;34190;-75
2021/12/20 01:18:17;;;;;;;3.13;2.10;;;7.00;51.70;;;;;;5077811;27;36536;-75
2021/12/20 01:20:44;;;;;;;2.28;1.80;;;7.00;51.70;;;;;;5128403;27;34167;-75
2021/12/20 01:23:12;;;;;;;3.65;2.50;;;7.00;51.80;;;;;;5076978;27;34266;-75
2021/12/20 01:25:39;;;;;;;3.08;2.53;;;7.00;51.90;;;;;;5128232;27;34261;-75
2021/12/20 01:28:06;;;;;;;4.25;2.53;;;7.00;51.80;;;;;;5093006;27;35673;-75
2021/12/20 01:30:33;;;;;;;3.67;2.53;;;7.00;51.80;;;;;;5109511;27;34365;-76
2021/12/20 01:32:59;;;;;;;4.20;2.35;;;7.00;51.90;;;;;;5109393;27;34319;-75
2021/12/20 01:35:27;;;;;;;3.08;2.20;;;7.00;51.80;;;;;;5111249;27;34045;-75
2021/12/20 01:37:55;;;;;;;3.35;2.30;;;7.00;51.90;;;;;;5092310;27;35713;-75
2021/12/20 01:40:23;;;;;;;3.60;2.17;;;7.00;51.90;;;;;;5075720;27;34327;-75
2021/12/20 01:42:52;;;;;;;3.22;2.17;;;7.00;51.80;;;;;;5109845;27;34204;-76
2021/12/20 01:45:23;;;;;;;2.78;1.58;;;7.00;51.90;;;;;;5110084;27;34107;-75
2021/12/20 01:47:53;;;;;;;2.42;1.80;;;7.00;51.80;;;;;;5092360;27;36853;-75
2021/12/20 01:50:36;;;;;;;3.00;1.92;;;7.00;51.90;;;;;;5127153;27;34185;-75
2021/12/20 01:53:03;;;;;;;2.67;1.90;;;6.90;51.90;;;;;;5108151;27;34091;-75
2021/12/20 01:55:29;;;;;;;3.72;2.20;;;7.00;52.00;;;;;;5092207;27;34174;-75
2021/12/20 01:57:55;;;;;;;3.35;2.25;;;7.00;52.10;;;;;;5108795;27;36983;-75
2021/12/20 02:00:25;;;;;;;3.83;2.22;;;6.90;52.10;;;;;;5110008;27;34388;-75
2021/12/20 02:02:58;;;;;;;3.13;2.10;;;7.00;52.20;;;;;;5092257;27;34126;-75
2021/12/20 02:05:46;;;;;;;2.97;2.05;;;6.90;52.20;;;;;;5109226;27;34230;-75
2021/12/20 02:08:17;;;;;;;2.53;1.60;;;6.90;52.20;;;;;;5109186;27;36431;-75
2021/12/20 02:10:46;;;;;;;2.60;1.88;;;6.90;52.20;;;;;;5126960;27;34305;-75
2021/12/20 02:13:14;;;;;;;3.03;1.90;;;6.90;52.20;;;;;;5109482;27;33634;-75
2021/12/20 02:15:40;;;;;;;1.98;1.60;;;6.90;52.30;;;;;;5091565;27;34302;-75
2021/12/20 02:18:07;;;;;;;2.33;1.83;;;6.90;52.30;;;;;;5115747;27;35768;-75
2021/12/20 02:20:35;;;;;;;2.55;1.92;;;6.90;52.30;;;;;;5148583;27;34152;-75
2021/12/20 02:23:03;;;;;;;3.38;2.08;;;6.90;52.30;;;;;;5129185;27;34287;-75
2021/12/20 02:25:31;;;;;;;2.90;1.60;;;6.90;52.30;;;;;;5129959;27;34204;-75
2021/12/20 02:28:03;;;;;;;2.38;1.58;;;7.00;52.30;;;;;;5111738;27;36426;-75
2021/12/20 02:30:54;;;;;;;4.53;2.10;;;6.90;52.30;;;;;;5112928;27;34401;-75
2021/12/20 02:38:39;;;;;;;2.45;1.70;;;6.90;52.40;;;;;;5148692;27;34082;-75
2021/12/20 02:41:11;;;;;;;5.57;2.15;;;6.80;52.40;;;;;;5113288;27;34084;-75
2021/12/20 02:43:42;;;;;;;3.22;2.17;;;6.90;52.50;;;;;;5112549;27;34414;-75
2021/12/20 02:46:44;;;;;;;3.05;2.10;;;6.90;52.50;;;;;;5129770;27;34197;-75
2021/12/20 02:49:15;;;;;;;3.17;1.90;;;6.80;52.50;;;;;;5132691;27;34239;-75
2021/12/20 02:51:43;;;;;;;3.33;1.70;;;6.80;52.40;;;;;;5129794;27;34152;-75
2021/12/20 02:54:11;;;;;;;2.47;1.60;;;6.80;52.50;;;;;;5112410;27;34218;-75
2021/12/20 02:56:37;;;;;;;1.85;1.33;;;6.80;52.50;;;;;;5113811;27;33817;-75
2021/12/20 02:59:04;;;;;;;2.35;1.42;;;6.80;52.50;;;;;;5148100;27;34321;-75
2021/12/20 03:01:31;;;;;;;2.28;1.60;;;6.80;52.50;;;;;;5130460;27;34320;-75
2021/12/20 03:03:58;;;;;;;3.17;1.95;;;6.80;52.50;;;;;;5130230;27;34120;-75
2021/12/20 03:06:29;;;;;;;2.85;1.40;;;6.80;52.50;;;;;;5129407;27;34165;-75
2021/12/20 03:08:57;;;;;;;2.40;1.70;;;6.80;52.60;;;;;;5130794;27;34392;-75
2021/12/20 03:11:26;;;;;;;1.95;1.50;;;6.80;52.60;;;;;;5112736;27;34220;-75
2021/12/20 03:14:04;;;;;;;2.17;1.48;;;6.80;52.50;;;;;;5112867;27;34214;-75
2021/12/20 03:16:30;;;;;;;2.67;1.77;;;6.80;52.60;;;;;;5098335;27;34202;-75
2021/12/20 03:18:56;;;;;;;2.78;1.58;;;6.80;52.60;;;;;;5097938;27;35881;-75
2021/12/20 03:21:22;;;;;;;2.58;1.55;;;6.80;52.60;;;;;;5108735;27;34336;-75
2021/12/20 03:23:48;;;;;;;2.78;1.90;;;6.80;52.60;;;;;;5109404;27;33820;-75
2021/12/20 03:26:14;;;;;;;1.40;1.30;;;6.80;52.60;;;;;;5093307;27;34639;-75
2021/12/20 03:28:40;;;;;;;2.25;1.45;;;6.80;52.50;;;;;;5095490;27;35893;-75
2021/12/20 03:31:06;;;;;;;3.22;1.38;;;6.80;52.70;;;;;;5113172;27;34267;-75
2021/12/20 03:33:32;;;;;;;2.47;1.70;;;6.80;52.60;;;;;;5095630;27;34245;-75
2021/12/20 03:35:58;;;;;;;1.90;1.45;;;6.80;52.60;;;;;;5112390;27;34238;-75
2021/12/20 03:38:25;;;;;;;1.33;1.05;;;6.80;52.70;;;;;;5113033;27;34305;-75
2021/12/20 03:40:51;;;;;;;1.90;1.58;;;6.80;52.70;;;;;;5131102;27;34182;-75
2021/12/20 03:43:18;;;;;;;1.77;1.33;;;6.80;52.70;;;;;;5112297;27;34256;-75
2021/12/20 03:45:49;;;;;;;2.17;1.33;;;6.80;52.70;;;;;;5095964;27;34340;-75
2021/12/20 03:48:15;;;;;;;2.15;1.40;;;6.80;52.60;;;;;;5129468;27;34394;-75
2021/12/20 03:50:41;;;;;;;1.70;1.30;;;6.80;52.70;;;;;;5131232;27;34143;-75
2021/12/20 03:53:07;;;;;;;2.60;1.58;;;6.80;52.70;;;;;;5130428;27;34454;-75
2021/12/20 03:55:33;;;;;;;1.52;1.10;;;6.80;52.80;;;;;;5112905;27;34382;-75
2021/12/20 03:57:59;;;;;;;1.25;1.10;;;6.80;52.70;;;;;;5111653;27;34313;-75
2021/12/20 04:00:26;;;;;;;2.13;1.60;;;6.80;52.80;;;;;;5111291;27;34360;-75
2021/12/20 04:02:52;;;;;;;1.90;1.30;;;6.70;52.90;;;;;;5112158;27;34238;-75
2021/12/20 04:05:19;;;;;;;1.45;1.20;;;6.70;52.90;;;;;;5095472;27;34396;-75
2021/12/20 04:07:45;;;;;;;1.55;0.98;;;6.80;52.90;;;;;;5111912;27;34460;-75
2021/12/20 04:10:11;;;;;;;1.83;1.48;;;6.80;53.00;;;;;;5112473;27;34249;-75
2021/12/20 04:12:37;;;;;;;1.92;1.42;;;6.70;53.00;;;;;;5112253;27;34254;-75
2021/12/20 04:15:05;;;;;;;1.83;1.20;;;6.70;52.90;;;;;;5112743;27;34128;-75
2021/12/20 04:17:31;;;;;;;1.75;1.15;;;6.70;52.90;;;;;;5115263;27;35904;-75
2021/12/20 04:19:58;;;;;;;1.48;1.25;;;6.70;52.80;;;;;;5151697;27;34127;-75
2021/12/20 04:22:24;;;;;;;2.22;1.15;;;6.70;52.80;;;;;;5150855;27;34285;-75
2021/12/20 04:24:50;;;;;;;1.50;1.20;;;6.70;52.80;;;;;;5115721;27;34213;-75
2021/12/20 04:27:16;;;;;;;1.15;1.00;;;6.70;52.90;;;;;;5131823;27;35740;-75
2021/12/20 04:29:42;;;;;;;1.65;1.20;;;6.70;53.00;;;;;;5132350;27;34482;-75
2021/12/20 04:32:08;;;;;;;1.63;1.00;;;6.70;53.10;;;;;;5132066;27;34110;-75
2021/12/20 04:34:34;;;;;;;1.50;1.40;;;6.60;53.00;;;;;;5114719;27;34555;-75
2021/12/20 04:37:00;;;;;;;1.35;1.25;;;6.60;52.80;;;;;;5130797;27;36114;-75
2021/12/20 04:39:30;;;;;;;1.40;1.23;;;6.70;52.80;;;;;;5133774;27;34161;-75
2021/12/20 04:41:56;;;;;;;1.50;1.25;;;6.60;52.90;;;;;;5151458;27;34202;-75
2021/12/20 04:44:22;;;;;;;1.50;1.30;;;6.70;52.80;;;;;;5116341;27;34161;-75
2021/12/20 04:46:49;;;;;;;1.42;1.08;;;6.70;52.80;;;;;;5131141;27;35648;-75
2021/12/20 04:49:15;;;;;;;1.60;1.38;;;6.70;52.60;;;;;;5131216;27;34163;-75
2021/12/20 04:51:41;;;;;;;1.67;1.40;;;6.70;52.60;;;;;;5132770;27;34192;-75
2021/12/20 04:54:07;;;;;;;1.77;1.40;;;6.70;52.60;;;;;;5132152;27;34429;-75
2021/12/20 04:56:33;;;;;;;1.33;1.23;;;6.70;52.60;;;;;;5097727;27;36360;-75
2021/12/20 04:58:59;;;;;;;1.83;1.35;;;6.70;52.30;;;;;;5149888;27;34236;-75
2021/12/20 05:01:25;;;;;;;2.50;1.45;;;6.70;52.40;;;;;;5130735;27;34218;-75
2021/12/20 05:03:52;;;;;;;2.35;1.45;;;6.70;52.10;;;;;;5114643;27;34573;-75
2021/12/20 05:06:18;;;;;;;1.40;1.30;;;6.80;52.10;;;;;;5131539;27;36179;-75
2021/12/20 05:08:50;;;;;;;1.35;1.25;;;6.70;52.10;;;;;;5113767;27;34344;-75
2021/12/20 05:11:17;;;;;;;2.13;1.42;;;6.80;52.00;;;;;;5130000;27;34123;-75
2021/12/20 05:13:43;;;;;;;2.08;1.52;;;6.70;52.00;;;;;;5114018;27;34094;-76
2021/12/20 05:16:09;;;;;;;1.60;1.50;;;6.70;51.90;;;;;;5131632;27;36524;-75
2021/12/20 05:18:35;;;;;;;2.95;1.70;;;6.70;51.80;;;;;;5148774;27;34185;-75
2021/12/20 05:21:02;;;;;;;1.75;1.50;;;6.70;51.60;;;;;;5150253;27;34273;-75
2021/12/20 05:23:28;;;;;;;4.18;1.92;;;6.70;51.80;;;;;;5130875;27;34400;-75
2021/12/20 05:25:55;;;;;;;1.60;1.42;;;6.70;51.70;;;;;;5130429;27;35852;-75
2021/12/20 05:28:22;;;;;;;3.28;2.00;;;6.70;51.60;;;;;;5113546;27;34341;-74
2021/12/20 05:30:50;;;;;;;2.53;1.77;;;6.70;51.80;;;;;;5151296;27;34204;-75
2021/12/20 05:33:17;;;;;;;3.45;2.13;;;6.70;51.80;;;;;;5115766;27;34462;-75
2021/12/20 05:35:43;;;;;;;4.15;1.90;;;6.70;51.70;;;;;;5132315;27;35638;-75
2021/12/20 05:38:09;;;;;;;2.25;1.77;;;6.70;51.70;;;;;;5132447;27;34159;-75
2021/12/20 05:40:35;;;;;;;3.22;2.20;;;6.80;51.70;;;;;;5131962;27;34378;-75
2021/12/20 05:43:03;;;;;;;8.07;2.40;;;6.70;51.60;;;;;;5131850;27;34254;-75
2021/12/20 05:45:29;;;;;;;3.35;2.10;;;6.70;51.30;;;;;;5131413;27;36433;-75
2021/12/20 05:47:55;;;;;;;3.80;2.45;;;6.80;51.20;;;;;;5113416;27;34371;-75
2021/12/20 05:50:23;;;;;;;5.22;2.50;;;6.80;51.40;;;;;;5130112;27;34437;-75
2021/12/20 05:52:50;;;;;;;2.85;2.08;;;6.80;51.30;;;;;;5132091;27;34284;-75
2021/12/20 05:55:16;;;;;;;2.80;1.95;;;6.70;51.30;;;;;;5130904;27;35722;-75
2021/12/20 05:57:43;;;;;;;4.05;2.17;;;6.70;51.50;;;;;;5131572;27;34430;-75
2021/12/20 06:00:14;;;;;;;3.85;2.28;;;6.70;51.40;;;;;;5131909;27;34267;-75
2021/12/20 06:02:42;;;;;;;6.30;2.42;;;6.70;51.30;;;;;;5131054;27;34143;-75
2021/12/20 06:05:09;;;;;;;3.65;2.42;;;6.70;51.30;;;;;;5131475;27;36363;-75
2021/12/20 06:07:40;;;;;;;6.07;2.30;;;6.70;51.40;;;;;;5131346;27;34103;-75
2021/12/20 06:10:07;;;;;;;5.45;2.90;;;6.70;51.30;;;;;;5149307;27;34269;-75
2021/12/20 06:12:35;;;;;;;4.60;2.47;;;6.70;51.30;;;;;;5114280;27;34428;-75
2021/12/20 06:15:03;;;;;;;3.30;2.60;;;6.70;51.30;;;;;;5131451;27;35622;-75
2021/12/20 06:17:29;;;;;;;4.45;2.47;;;6.70;51.30;;;;;;5096392;27;34191;-75
2021/12/20 06:19:55;;;;;;;3.08;2.28;;;6.70;51.30;;;;;;5130390;27;34162;-75
2021/12/20 06:22:21;;;;;;;3.22;2.50;;;6.60;51.20;;;;;;5096649;27;34053;-75
2021/12/20 06:24:47;;;;;;;4.65;2.60;;;6.60;51.20;;;;;;5130688;27;36372;-75
2021/12/20 06:27:13;;;;;;;2.97;2.13;;;6.60;51.20;;;;;;5113473;27;34236;-75
2021/12/20 06:29:57;;;;;;;5.43;2.50;;;6.60;51.20;;;;;;5113345;27;34400;-75
2021/12/20 06:32:23;;;;;;;5.60;2.70;;;6.60;51.20;;;;;;5130741;27;34244;-75
2021/12/20 06:34:49;;;;;;;3.70;2.42;;;6.60;51.20;;;;;;5112905;27;35538;-75
2021/12/20 06:37:15;;;;;;;3.80;2.22;;;6.60;51.20;;;;;;5130980;27;34156;-75
2021/12/20 06:39:41;;;;;;;4.30;2.72;;;6.60;51.30;;;;;;5131802;27;34009;-75
2021/12/20 06:42:08;;;;;;;5.57;2.80;;;6.60;51.40;;;;;;5130248;27;34334;-75
2021/12/20 06:44:34;;;;;;;4.25;2.58;;;6.60;51.20;;;;;;5113224;27;35598;-75
2021/12/20 06:47:01;;;;;;;6.03;2.50;;;6.60;51.20;;;;;;5129725;27;34216;-75
2021/12/20 06:49:27;;;;;;;5.82;2.60;;;6.50;50.90;;;;;;5130454;27;34407;-75
2021/12/20 06:51:55;;;;;;;3.80;2.38;;;6.50;51.20;;;;;;5112944;27;34273;-76
2021/12/20 06:54:22;;;;;;;4.85;2.30;;;6.50;51.10;;;;;;5129685;27;36749;-75
2021/12/20 06:56:48;;;;;;;4.40;2.40;;;6.50;51.20;;;;;;5129733;27;34216;-75
2021/12/20 06:59:14;;;;;;;3.42;2.40;;;6.50;51.20;;;;;;5112659;27;34173;-75
2021/12/20 07:01:41;;;;;;;3.40;2.40;;;6.50;51.20;;;;;;5131372;27;34333;-75
2021/12/20 07:04:07;;;;;;;4.65;3.00;;;6.50;51.20;;;;;;5151990;27;34279;-75
2021/12/20 07:06:34;;;;;;;9.13;2.83;;;6.50;51.30;;;;;;5132992;27;34130;-75
2021/12/20 07:09:00;;;;;;;6.45;3.30;;;6.50;51.30;;;;;;5132520;27;34225;-75
2021/12/20 07:11:26;;;;;;;6.88;5.05;;;6.50;51.20;;;;;;5116688;27;34218;-75
2021/12/20 07:13:54;;;;;;;10.02;5.57;;;6.50;51.20;;;;;;5132305;27;36814;-75
2021/12/20 07:16:21;;;;;;;14.40;6.35;;;6.40;51.20;;;;;;5132782;27;34384;-75
2021/12/20 07:18:47;;;;;;;15.45;7.05;;;6.50;51.00;;;;;;5115921;27;34390;-76
2021/12/20 07:21:13;;;;;;;11.57;7.13;;;6.50;50.70;;;;;;5152083;27;34451;-75
2021/12/20 07:23:39;;;;;;;14.70;7.00;;;6.50;50.50;;;;;;5133637;27;35860;-75
2021/12/20 07:26:10;;;;;;;10.50;6.45;;;6.50;50.50;;;;;;5133758;27;34201;-75
2021/12/20 07:28:36;;;;;;;16.48;7.43;;;6.50;50.40;;;;;;5151721;27;34266;-75
2021/12/20 07:31:02;;;;;;;14.48;7.13;;;6.50;50.70;;;;;;5132503;27;34326;-75
2021/12/20 07:33:28;;;;;;;13.75;7.80;;;6.50;50.60;;;;;;5132762;27;35813;-75
2021/12/20 07:35:54;;;;;;;16.38;7.20;;;6.50;50.30;;;;;;5098904;27;34217;-75
2021/12/20 07:38:20;;;;;;;14.15;7.50;;;6.50;50.30;;;;;;5133030;27;34283;-75
2021/12/20 07:40:48;;;;;;;15.38;7.47;;;6.50;50.20;;;;;;5134787;27;34194;-75
2021/12/20 07:43:17;;;;;;;15.30;8.05;;;6.50;50.30;;;;;;5117226;27;35783;-75
2021/12/20 07:45:47;;;;;;;13.60;7.78;;;6.50;50.30;;;;;;5117944;27;34438;-75
2021/12/20 07:48:15;;;;;;;10.05;6.60;;;6.50;50.20;;;;;;5133888;27;34181;-75
2021/12/20 07:50:41;;;;;;;16.25;6.90;;;6.60;50.30;;;;;;5116998;27;34164;-75
2021/12/20 07:53:07;;;;;;;11.15;7.03;;;6.60;50.10;;;;;;5133122;27;35872;-75
2021/12/20 07:55:33;;;;;;;11.10;6.45;;;6.60;50.20;;;;;;5133541;27;34395;-75
2021/12/20 07:57:59;;;;;;;10.80;6.80;;;6.50;50.60;;;;;;5116545;27;34241;-75
2021/12/20 08:00:26;;;;;;;11.27;5.57;;;6.60;50.50;;;;;;5132336;27;34435;-75
2021/12/20 08:03:11;;;;;;;10.55;5.50;;;6.60;49.80;;;;;;5133069;27;36127;-76
2021/12/20 08:05:37;;;;;;;14.38;5.68;;;6.60;48.60;;;;;;5151120;27;34128;-76
2021/12/20 08:08:03;;;;;;;17.40;6.95;;;6.60;49.70;;;;;;5131737;27;34000;-75
2021/12/20 08:10:29;;;;;;;10.68;5.80;;;6.70;49.70;;;;;;5130715;27;34168;-78
2021/12/20 08:12:55;;;;;;;13.77;6.22;;;6.70;49.40;;;;;;5129887;27;36477;-75
2021/12/20 08:15:22;;;;;;;10.90;5.65;;;6.70;49.20;;;;;;5150803;27;34265;-75
2021/12/20 08:17:50;;;;;;;11.82;5.63;;;6.80;49.30;;;;;;5132815;27;34185;-75
2021/12/20 08:20:16;;;;;;;9.95;5.35;;;6.80;49.30;;;;;;5132296;27;34229;-75
2021/12/20 08:22:42;;;;;;;12.50;5.88;;;6.80;49.30;;;;;;5151099;27;34175;-75
2021/12/20 08:25:09;;;;;;;9.07;5.72;;;6.90;49.50;;;;;;5115528;27;34191;-75
2021/12/20 08:27:35;;;;;;;11.00;5.35;;;6.90;49.50;;;;;;5150179;27;34249;-75
2021/12/20 08:30:02;;;;;;;14.75;5.68;;;6.90;49.20;;;;;;5131925;27;34236;-75
2021/12/20 08:32:28;;;;;;;9.95;5.18;;;7.00;49.00;;;;;;5114642;27;35819;-75
2021/12/20 08:34:55;;;;;;;10.32;5.10;;;7.00;49.00;;;;;;5134070;27;34269;-75
2021/12/20 08:37:21;;;;;;;10.60;5.65;;;7.00;48.90;;;;;;5114801;27;34317;-75
2021/12/20 08:39:47;;;;;;;8.70;4.38;;;7.00;48.60;;;;;;5131110;27;34507;-75
2021/12/20 08:42:13;;;;;;;7.93;4.25;;;7.00;47.20;;;;;;5112176;27;34838;-75
2021/12/20 08:44:39;;;;;;;12.45;4.75;;;7.10;48.00;;;;;;5129487;27;34127;-75
2021/12/20 08:47:05;;;;;;;8.13;3.53;;;7.10;48.30;;;;;;5113634;27;34108;-75
2021/12/20 08:49:31;;;;;;;11.52;3.75;;;7.10;48.00;;;;;;5130340;27;34159;-75
2021/12/20 08:51:59;;;;;;;11.77;3.92;;;7.20;47.90;;;;;;5130947;27;35598;-75
2021/12/20 08:54:27;;;;;;;8.68;3.53;;;7.20;47.80;;;;;;5113195;27;34380;-75
2021/12/20 08:56:55;;;;;;;6.97;3.30;;;7.20;47.30;;;;;;5112540;27;34245;-75
2021/12/20 08:59:21;;;;;;;6.70;3.60;;;7.20;47.60;;;;;;5129499;27;34129;-75
2021/12/20 09:01:47;;;;;;;6.97;3.60;;;7.30;47.20;;;;;;5131139;27;35789;-75
2021/12/20 09:04:13;;;;;;;7.35;3.35;;;7.30;47.00;;;;;;5112083;27;34345;-75
2021/12/20 09:06:41;;;;;;;5.22;2.85;;;7.30;47.10;;;;;;5146530;27;34210;-75
2021/12/20 09:09:09;;;;;;;11.70;4.30;;;7.30;47.10;;;;;;5112262;27;34215;-75
2021/12/20 09:11:36;;;;;;;6.82;3.65;;;7.30;47.30;;;;;;5129780;27;34478;-75
2021/12/20 09:14:20;;;;;;;9.63;3.60;;;7.40;47.20;;;;;;5128638;27;35041;-75
2021/12/20 09:16:46;;;;;;;7.65;3.63;;;7.40;46.00;;;;;;5128985;27;34216;-75
2021/12/20 09:19:13;;;;;;;9.55;3.78;;;7.40;47.20;;;;;;5147845;27;34194;-75
2021/12/20 09:21:40;;;;;;;5.68;3.92;;;7.50;47.20;;;;;;5129501;27;36657;-75
2021/12/20 09:24:09;;;;;;;9.35;3.80;;;7.60;47.30;;;;;;5111275;27;34403;-75
2021/12/20 09:26:35;;;;;;;6.60;3.28;;;7.60;47.00;;;;;;5129324;27;34052;-75
2021/12/20 09:29:01;;;;;;;6.00;2.95;;;7.60;46.90;;;;;;5129109;27;34096;-75
2021/12/20 09:31:27;;;;;;;6.85;3.00;;;7.60;46.60;;;;;;5128999;27;35611;-75
2021/12/20 09:33:55;;;;;;;5.10;2.78;;;7.70;46.80;;;;;;5147175;27;34324;-75
2021/12/20 09:36:28;;;;;;;7.70;2.53;;;7.70;46.50;;;;;;5128261;27;34269;-74
2021/12/20 09:38:54;;;;;;;12.02;2.75;;;7.70;46.40;;;;;;5113010;27;34025;-75
2021/12/20 09:41:59;;;;;;;6.40;2.17;;;7.70;46.20;;;;;;5128439;27;35736;-75
2021/12/20 09:44:09;;;;;;;5.57;2.92;;;7.70;46.40;;;;;;5131381;27;33838;-75
2021/12/20 09:46:36;;;;;;;7.07;2.45;;;7.80;46.20;;;;;;5112092;27;34384;-75
2021/12/20 09:49:03;;;;;;;8.50;2.83;;;7.80;46.80;;;;;;5111235;27;34385;-75
2021/12/20 09:51:30;;;;;;;11.18;2.72;;;7.70;46.10;;;;;;5128189;27;35716;-75
2021/12/20 09:53:56;;;;;;;7.55;3.00;;;7.80;46.20;;;;;;5147329;27;34086;-75
2021/12/20 09:56:25;;;;;;;7.50;3.03;;;7.80;46.00;;;;;;5129450;27;34154;-75
2021/12/20 09:58:53;;;;;;;12.73;3.47;;;7.80;46.30;;;;;;5146878;27;34323;-75
2021/12/20 10:01:21;;;;;;;7.80;2.70;;;7.90;46.10;;;;;;5111357;27;36484;-75
2021/12/20 10:03:48;;;;;;;5.05;2.80;;;7.90;45.70;;;;;;5128660;27;34080;-75
2021/12/20 10:06:15;;;;;;;6.18;3.33;;;7.90;45.70;;;;;;5128580;27;34251;-75
2021/12/20 10:11:28;;;;;;;5.47;2.97;;;8.00;45.60;;;;;;5145506;27;34321;-75
2021/12/20 10:14:14;;;;;;;7.25;3.63;;;8.00;45.30;;;;;;5128173;27;34109;-75
2021/12/20 10:16:44;;;;;;;7.70;3.45;;;8.00;42.60;;;;;;5146036;27;34189;-75
2021/12/20 10:19:28;;;;;;;8.32;2.95;;;8.00;45.20;;;;;;5110970;27;34548;-75
2021/12/20 10:21:56;;;;;;;8.98;2.97;;;8.10;43.30;;;;;;5126365;27;35937;-75
2021/12/20 10:24:35;;;;;;;6.35;2.80;;;8.10;45.10;;;;;;5111626;27;35251;-75
2021/12/20 10:27:01;;;;;;;6.00;2.90;;;8.10;44.10;;;;;;5128110;27;34138;-75
2021/12/20 10:29:28;;;;;;;9.75;3.13;;;8.10;45.60;;;;;;5110929;27;34127;-75
2021/12/20 10:31:55;;;;;;;9.68;3.03;;;8.20;45.30;;;;;;5127400;27;35121;-75
2021/12/20 10:34:37;;;;;;;6.80;2.85;;;8.20;44.90;;;;;;5126741;27;34225;-75
2021/12/20 10:37:04;;;;;;;9.73;3.03;;;8.10;41.90;;;;;;5123228;27;34270;-75
2021/12/20 10:39:34;;;;;;;7.93;2.60;;;8.20;44.90;;;;;;5147267;27;34314;-75
2021/12/20 10:42:17;;;;;;;12.43;3.20;;;8.20;44.80;;;;;;5127697;27;35593;-75
2021/12/20 10:44:43;;;;;;;8.15;2.45;;;8.30;42.60;;;;;;5145182;27;34321;-75
2021/12/20 10:47:26;;;;;;;6.03;2.13;;;8.20;44.70;;;;;;5127611;27;34083;-75
2021/12/20 10:49:52;;;;;;;7.43;2.58;;;8.20;41.60;;;;;;5128168;27;34264;-75
2021/12/20 10:52:28;;;;;;;8.52;2.08;;;8.30;44.80;;;;;;5144900;27;34278;-75
2021/12/20 10:54:54;;;;;;;4.85;2.55;;;8.30;42.40;;;;;;5127534;27;34163;-75
2021/12/20 10:57:28;;;;;;;4.40;2.33;;;8.30;44.60;;;;;;5127396;27;34124;-75
2021/12/20 11:00:18;;;;;;;7.72;2.33;;;8.40;43.80;;;;;;5110331;27;34380;-75
2021/12/20 11:06:00;;;;;;;8.00;1.88;;;8.50;40.80;;;;;;5129141;27;34582;-75
2021/12/20 11:11:11;;;;;;;5.72;2.15;;;8.50;43.80;;;;;;5144707;27;34152;-75
2021/12/20 11:13:39;;;;;;;6.80;2.20;;;8.50;43.90;;;;;;5144605;27;34365;-75
2021/12/20 11:16:27;;;;;;;6.97;2.35;;;8.50;43.60;;;;;;5108809;27;34087;-75
2021/12/20 11:19:16;;;;;;;5.93;2.00;;;8.50;40.30;;;;;;5095442;27;34181;-75
2021/12/20 11:22:02;;;;;;;3.03;1.85;;;8.50;38.30;;;;;;5113018;27;34150;-75
2021/12/20 11:24:33;;;;;;;5.38;2.00;;;8.50;42.80;;;;;;5126579;27;36393;-75
2021/12/20 11:27:01;;;;;;;5.90;1.60;;;8.50;43.50;;;;;;5110295;27;34059;-75
2021/12/20 11:29:28;;;;;;;10.65;2.22;;;8.60;43.50;;;;;;5109065;27;35035;-75
2021/12/20 11:31:56;;;;;;;4.68;1.85;;;8.60;43.40;;;;;;5144097;27;34161;-75
2021/12/20 11:34:23;;;;;;;9.23;1.70;;;8.50;42.90;;;;;;5145015;27;34430;-75
2021/12/20 11:36:50;;;;;;;7.45;1.50;;;8.50;43.10;;;;;;5127264;27;34219;-74
2021/12/20 11:39:35;;;;;;;4.97;1.60;;;8.50;42.80;;;;;;5126472;27;34379;-75
2021/12/20 11:42:01;;;;;;;5.88;1.70;;;8.50;39.30;;;;;;5144883;27;34447;-75
2021/12/20 11:44:29;;;;;;;5.57;1.50;;;8.50;42.60;;;;;;5125783;27;35755;-75
2021/12/20 11:47:26;;;;;;;7.85;1.92;;;8.50;42.40;;;;;;5109248;27;34165;-75
2021/12/20 11:49:59;;;;;;;4.85;1.60;;;8.40;38.30;;;;;;5130776;27;34171;-75
2021/12/20 11:52:31;;;;;;;5.13;1.30;;;8.40;41.20;;;;;;5113312;27;34172;-75
2021/12/20 11:54:57;;;;;;;5.97;1.65;;;8.50;41.40;;;;;;5111914;27;36343;-75
2021/12/20 11:57:39;;;;;;;3.58;1.60;;;8.40;42.30;;;;;;5147420;27;34397;-75
2021/12/20 12:00:24;;;;;;;6.88;1.83;;;8.40;39.20;;;;;;5129793;27;34231;-75
2021/12/20 12:02:54;;;;;;;9.35;2.03;;;8.40;41.80;;;;;;5114835;27;34511;-75
2021/12/20 12:05:39;;;;;;;4.63;1.58;;;8.30;42.00;;;;;;5129600;27;36001;-75
2021/12/20 12:08:23;;;;;;;4.22;1.38;;;8.30;38.90;;;;;;5111893;27;34524;-75
2021/12/20 12:10:49;;;;;;;7.97;1.77;;;8.30;38.60;;;;;;5111342;27;34320;-75
2021/12/20 12:13:19;;;;;;;4.28;1.70;;;8.30;42.40;;;;;;5129077;27;34127;-76
2021/12/20 12:16:02;;;;;;;4.53;1.65;;;8.20;42.00;;;;;;5148356;27;34098;-75
2021/12/20 12:18:51;;;;;;;4.80;1.27;;;8.30;39.70;;;;;;5120662;27;34115;-75
2021/12/20 12:21:39;;;;;;;3.65;1.33;;;8.30;38.70;;;;;;5109732;27;34169;-75
2021/12/20 12:24:14;;;;;;;4.10;1.65;;;8.40;39.10;;;;;;5094968;27;33966;-75
2021/12/20 12:26:43;;;;;;;3.70;1.27;;;8.40;41.90;;;;;;5109749;27;36089;-75
2021/12/20 12:29:19;;;;;;;6.20;1.55;;;8.40;41.00;;;;;;5092480;27;34256;-75
2021/12/20 12:31:57;;;;;;;3.03;1.50;;;8.40;36.30;;;;;;5093358;27;34235;-75
2021/12/20 12:34:37;;;;;;;5.55;1.42;;;8.50;38.60;;;;;;5093117;27;34041;-75
2021/12/20 12:37:23;;;;;;;3.75;1.30;;;8.50;41.10;;;;;;5128857;27;35314;-75
2021/12/20 12:39:49;;;;;;;3.33;1.20;;;8.50;37.90;;;;;;5111098;27;34092;-75
2021/12/20 12:42:16;;;;;;;5.40;1.50;;;8.60;40.80;;;;;;5091580;27;34298;-75
2021/12/20 12:44:51;;;;;;;4.15;1.40;;;8.60;40.70;;;;;;5110094;27;34432;-75
2021/12/20 12:47:35;;;;;;;4.90;1.60;;;8.60;38.10;;;;;;5109363;27;34269;-76
2021/12/20 12:50:01;;;;;;;2.72;1.00;;;8.60;34.30;;;;;;5109812;27;34143;-75
2021/12/20 12:52:33;;;;;;;5.72;1.45;;;8.60;40.00;;;;;;5109943;27;34776;-75
2021/12/20 12:55:06;;;;;;;5.90;1.52;;;8.60;38.80;;;;;;5091732;27;34332;-75
2021/12/20 12:57:37;;;;;;;3.42;1.00;;;8.60;39.80;;;;;;5076085;27;35508;-75
2021/12/20 13:00:08;;;;;;;7.55;1.65;;;8.60;39.50;;;;;;5109703;27;34193;-75
2021/12/20 13:02:39;;;;;;;6.07;1.48;;;8.60;39.80;;;;;;5109945;27;34072;-75
2021/12/20 13:05:14;;;;;;;4.22;1.25;;;8.60;39.50;;;;;;5108929;27;34026;-75
2021/12/20 13:07:56;;;;;;;4.70;1.25;;;8.70;39.60;;;;;;5108411;27;35646;-75
2021/12/20 13:10:31;;;;;;;3.58;1.30;;;8.70;36.30;;;;;;5107767;27;34388;-75
2021/12/20 13:13:03;;;;;;;4.65;1.30;;;8.70;39.50;;;;;;5126582;27;34031;-75
2021/12/20 13:15:36;;;;;;;3.88;1.25;;;8.70;39.90;;;;;;5108574;27;34599;-75
2021/12/20 13:18:08;;;;;;;5.07;1.52;;;8.80;40.10;;;;;;5119269;27;35785;-75
2021/12/20 13:20:50;;;;;;;2.47;1.13;;;8.80;39.70;;;;;;5134262;27;34199;-75
2021/12/20 13:23:23;;;;;;;5.00;1.30;;;8.80;39.80;;;;;;5151549;27;34072;-75